sensor_id;sensor_type;location;lat;lon;timestamp;pressure;altitude;pressure_sealevel;temperature;humidity
22572;BME280;11452;53.368;14.658;2023-03-22T00:04:26;100609.36;;;11.31;86.71
22572;BME280;11452;53.368;14.658;2023-03-22T00:09:32;100604.48;;;11.31;86.87
22572;BME280;11452;53.368;14.658;2023-03-22T00:14:38;100590.03;;;11.33;87.16
22572;BME280;11452;53.368;14.658;2023-03-22T00:19:44;100587.94;;;11.24;87.49
22572;BME280;11452;53.368;14.658;2023-03-22T00:24:50;100586.03;;;11.26;87.65
22572;BME280;11452;53.368;14.658;2023-03-22T00:29:56;100578.01;;;11.26;88.13
22572;BME280;11452;53.368;14.658;2023-03-22T00:35:02;100568.36;;;11.24;88.30
22572;BME280;11452;53.368;14.658;2023-03-22T00:40:10;100569.60;;;11.25;88.37
22572;BME280;11452;53.368;14.658;2023-03-22T00:45:17;100567.60;;;11.29;88.71
22572;BME280;11452;53.368;14.658;2023-03-22T00:50:22;100559.86;;;11.31;88.79
22572;BME280;11452;53.368;14.658;2023-03-22T00:55:28;100555.47;;;11.30;88.91
22572;BME280;11452;53.368;14.658;2023-03-22T01:00:34;100560.70;;;11.32;88.88
22572;BME280;11452;53.368;14.658;2023-03-22T01:05:39;100567.51;;;11.30;89.17
22572;BME280;11452;53.368;14.658;2023-03-22T01:10:45;100569.97;;;11.19;89.28
22572;BME280;11452;53.368;14.658;2023-03-22T01:15:51;100575.33;;;11.12;89.66
22572;BME280;11452;53.368;14.658;2023-03-22T01:20:58;100580.38;;;11.09;90.20
22572;BME280;11452;53.368;14.658;2023-03-22T01:26:06;100555.66;;;11.13;90.19
22572;BME280;11452;53.368;14.658;2023-03-22T01:31:12;100552.77;;;11.16;90.14
22572;BME280;11452;53.368;14.658;2023-03-22T01:36:19;100549.13;;;11.17;90.37
22572;BME280;11452;53.368;14.658;2023-03-22T01:41:24;100540.17;;;11.11;90.21
22572;BME280;11452;53.368;14.658;2023-03-22T01:46:31;100531.36;;;11.16;90.65
22572;BME280;11452;53.368;14.658;2023-03-22T01:51:39;100521.06;;;11.24;90.65
22572;BME280;11452;53.368;14.658;2023-03-22T01:57:05;100506.54;;;11.28;90.36
22572;BME280;11452;53.368;14.658;2023-03-22T02:02:13;100512.75;;;11.29;90.69
22572;BME280;11452;53.368;14.658;2023-03-22T02:07:23;100506.23;;;11.33;90.77
22572;BME280;11452;53.368;14.658;2023-03-22T02:12:57;100510.37;;;11.31;90.61
22572;BME280;11452;53.368;14.658;2023-03-22T02:29:03;100503.77;;;11.23;91.03
22572;BME280;11452;53.368;14.658;2023-03-22T02:44:51;100480.08;;;11.31;91.24
22572;BME280;11452;53.368;14.658;2023-03-22T02:50:02;100482.84;;;11.29;91.85
22572;BME280;11452;53.368;14.658;2023-03-22T02:55:31;100475.66;;;11.37;91.57
22572;BME280;11452;53.368;14.658;2023-03-22T03:00:40;100476.70;;;11.34;91.06
22572;BME280;11452;53.368;14.658;2023-03-22T03:05:49;100468.77;;;11.33;91.27
22572;BME280;11452;53.368;14.658;2023-03-22T03:10:56;100468.70;;;11.20;91.58
22572;BME280;11452;53.368;14.658;2023-03-22T03:16:03;100468.89;;;11.24;91.71
22572;BME280;11452;53.368;14.658;2023-03-22T03:27:13;100468.80;;;11.26;91.88
22572;BME280;11452;53.368;14.658;2023-03-22T03:37:42;100459.73;;;11.07;92.42
22572;BME280;11452;53.368;14.658;2023-03-22T03:42:45;100455.16;;;11.09;92.16
22572;BME280;11452;53.368;14.658;2023-03-22T03:47:54;100454.48;;;11.05;92.27
22572;BME280;11452;53.368;14.658;2023-03-22T03:53:00;100456.77;;;11.04;92.33
22572;BME280;11452;53.368;14.658;2023-03-22T03:58:07;100460.02;;;11.02;92.48
22572;BME280;11452;53.368;14.658;2023-03-22T04:03:17;100464.59;;;11.00;92.29
22572;BME280;11452;53.368;14.658;2023-03-22T04:08:25;100473.28;;;10.97;92.77
22572;BME280;11452;53.368;14.658;2023-03-22T04:13:31;100469.66;;;10.98;93.04
22572;BME280;11452;53.368;14.658;2023-03-22T04:18:38;100468.16;;;10.94;93.05
22572;BME280;11452;53.368;14.658;2023-03-22T04:23:44;100460.97;;;11.01;93.41
22572;BME280;11452;53.368;14.658;2023-03-22T04:28:51;100463.76;;;10.93;93.45
22572;BME280;11452;53.368;14.658;2023-03-22T04:33:57;100458.68;;;11.02;93.54
22572;BME280;11452;53.368;14.658;2023-03-22T04:39:10;100455.23;;;11.00;93.59
22572;BME280;11452;53.368;14.658;2023-03-22T04:44:16;100444.73;;;10.97;93.42
22572;BME280;11452;53.368;14.658;2023-03-22T04:49:24;100446.92;;;10.98;93.52
22572;BME280;11452;53.368;14.658;2023-03-22T04:54:30;100443.97;;;10.95;93.53
22572;BME280;11452;53.368;14.658;2023-03-22T04:59:36;100449.69;;;10.96;93.56
22572;BME280;11452;53.368;14.658;2023-03-22T05:04:42;100443.39;;;10.97;93.60
22572;BME280;11452;53.368;14.658;2023-03-22T05:09:50;100445.30;;;10.95;93.49
22572;BME280;11452;53.368;14.658;2023-03-22T05:14:56;100442.53;;;10.97;93.46
22572;BME280;11452;53.368;14.658;2023-03-22T05:20:04;100440.34;;;10.96;93.38
22572;BME280;11452;53.368;14.658;2023-03-22T05:25:15;100449.63;;;10.91;93.55
22572;BME280;11452;53.368;14.658;2023-03-22T05:30:22;100438.52;;;10.97;93.46
22572;BME280;11452;53.368;14.658;2023-03-22T05:35:31;100438.23;;;11.01;93.50
22572;BME280;11452;53.368;14.658;2023-03-22T05:40:37;100432.70;;;10.97;93.70
22572;BME280;11452;53.368;14.658;2023-03-22T05:45:44;100428.98;;;11.00;93.96
22572;BME280;11452;53.368;14.658;2023-03-22T05:50:52;100418.19;;;11.01;93.78
22572;BME280;11452;53.368;14.658;2023-03-22T05:55:58;100416.47;;;11.00;93.79
22572;BME280;11452;53.368;14.658;2023-03-22T06:01:08;100418.86;;;11.05;93.66
22572;BME280;11452;53.368;14.658;2023-03-22T06:06:25;100417.98;;;10.97;93.56
22572;BME280;11452;53.368;14.658;2023-03-22T06:11:36;100424.01;;;11.01;94.07
22572;BME280;11452;53.368;14.658;2023-03-22T06:16:42;100414.75;;;11.06;93.71
22572;BME280;11452;53.368;14.658;2023-03-22T06:21:48;100416.75;;;11.03;93.83
22572;BME280;11452;53.368;14.658;2023-03-22T06:26:56;100412.02;;;11.76;97.41
22572;BME280;11452;53.368;14.658;2023-03-22T06:32:04;100413.61;;;11.86;93.71
22572;BME280;11452;53.368;14.658;2023-03-22T06:37:10;100416.25;;;11.59;92.63
22572;BME280;11452;53.368;14.658;2023-03-22T06:42:17;100414.09;;;11.71;92.38
22572;BME280;11452;53.368;14.658;2023-03-22T06:47:25;100413.95;;;11.60;91.67
22572;BME280;11452;53.368;14.658;2023-03-22T06:52:38;100422.02;;;11.72;91.31
22572;BME280;11452;53.368;14.658;2023-03-22T06:57:44;100419.03;;;11.57;91.24
22572;BME280;11452;53.368;14.658;2023-03-22T07:02:50;100417.88;;;11.61;91.06
22572;BME280;11452;53.368;14.658;2023-03-22T07:07:57;100419.25;;;11.74;90.77
22572;BME280;11452;53.368;14.658;2023-03-22T07:13:04;100413.13;;;11.86;90.59
22572;BME280;11452;53.368;14.658;2023-03-22T07:18:11;100411.46;;;11.91;90.78
22572;BME280;11452;53.368;14.658;2023-03-22T07:23:17;100400.14;;;12.00;89.87
22572;BME280;11452;53.368;14.658;2023-03-22T07:28:25;100402.45;;;11.99;89.48
22572;BME280;11452;53.368;14.658;2023-03-22T07:33:32;100399.95;;;12.03;89.26
22572;BME280;11452;53.368;14.658;2023-03-22T07:38:38;100406.68;;;12.08;88.92
22572;BME280;11452;53.368;14.658;2023-03-22T07:43:45;100415.73;;;12.00;87.82
22572;BME280;11452;53.368;14.658;2023-03-22T07:48:54;100400.25;;;11.98;88.46
22572;BME280;11452;53.368;14.658;2023-03-22T07:54:01;100395.94;;;12.16;88.71
22572;BME280;11452;53.368;14.658;2023-03-22T07:59:09;100387.32;;;12.18;87.87
22572;BME280;11452;53.368;14.658;2023-03-22T08:04:15;100387.32;;;12.18;87.69
22572;BME280;11452;53.368;14.658;2023-03-22T08:09:30;100381.47;;;12.05;86.72
22572;BME280;11452;53.368;14.658;2023-03-22T08:14:37;100383.09;;;12.21;86.96
22572;BME280;11452;53.368;14.658;2023-03-22T08:19:44;100375.33;;;12.36;87.04
22572;BME280;11452;53.368;14.658;2023-03-22T08:24:52;100372.91;;;12.51;86.73
22572;BME280;11452;53.368;14.658;2023-03-22T08:29:59;100365.84;;;12.50;85.79
22572;BME280;11452;53.368;14.658;2023-03-22T08:35:07;100373.77;;;12.52;85.85
22572;BME280;11452;53.368;14.658;2023-03-22T08:40:13;100376.06;;;12.63;84.71
22572;BME280;11452;53.368;14.658;2023-03-22T08:45:21;100366.75;;;12.56;84.73
22572;BME280;11452;53.368;14.658;2023-03-22T08:50:28;100362.09;;;12.83;85.70
22572;BME280;11452;53.368;14.658;2023-03-22T08:55:35;100363.65;;;12.93;83.50
22572;BME280;11452;53.368;14.658;2023-03-22T09:00:51;100369.88;;;12.94;83.68
22572;BME280;11452;53.368;14.658;2023-03-22T09:06:09;100370.78;;;12.87;83.21
22572;BME280;11452;53.368;14.658;2023-03-22T09:11:16;100371.88;;;13.03;83.21
22572;BME280;11452;53.368;14.658;2023-03-22T09:16:23;100367.78;;;13.23;83.25
22572;BME280;11452;53.368;14.658;2023-03-22T09:21:29;100364.44;;;13.32;81.71
22572;BME280;11452;53.368;14.658;2023-03-22T09:26:37;100361.22;;;13.27;82.15
22572;BME280;11452;53.368;14.658;2023-03-22T09:31:43;100366.02;;;13.58;82.59
22572;BME280;11452;53.368;14.658;2023-03-22T09:36:51;100360.98;;;13.72;81.85
22572;BME280;11452;53.368;14.658;2023-03-22T09:42:03;100351.63;;;13.59;80.93
22572;BME280;11452;53.368;14.658;2023-03-22T09:47:15;100343.64;;;13.76;80.42
22572;BME280;11452;53.368;14.658;2023-03-22T09:52:21;100329.31;;;13.99;80.61
22572;BME280;11452;53.368;14.658;2023-03-22T09:57:31;100325.77;;;13.99;78.36
22572;BME280;11452;53.368;14.658;2023-03-22T10:02:45;100332.19;;;14.26;79.33
22572;BME280;11452;53.368;14.658;2023-03-22T10:08:40;100337.69;;;14.35;76.91
22572;BME280;11452;53.368;14.658;2023-03-22T10:18:28;100331.89;;;14.47;76.12
22572;BME280;11452;53.368;14.658;2023-03-22T10:28:40;100327.23;;;14.71;76.43
22572;BME280;11452;53.368;14.658;2023-03-22T10:34:01;100321.34;;;14.66;73.84
22572;BME280;11452;53.368;14.658;2023-03-22T10:39:51;100318.54;;;14.68;74.69
22572;BME280;11452;53.368;14.658;2023-03-22T10:44:13;100312.92;;;14.82;74.45
22572;BME280;11452;53.368;14.658;2023-03-22T10:49:28;100302.41;;;14.73;73.42
22572;BME280;11452;53.368;14.658;2023-03-22T10:54:29;100300.20;;;14.78;74.19
22572;BME280;11452;53.368;14.658;2023-03-22T10:59:49;100297.39;;;14.74;73.02
22572;BME280;11452;53.368;14.658;2023-03-22T11:04:58;100296.11;;;15.06;73.63
22572;BME280;11452;53.368;14.658;2023-03-22T11:15:32;100288.27;;;15.52;74.01
22572;BME280;11452;53.368;14.658;2023-03-22T11:20:40;100276.44;;;15.75;72.25
22572;BME280;11452;53.368;14.658;2023-03-22T11:25:49;100262.47;;;15.76;70.65
22572;BME280;11452;53.368;14.658;2023-03-22T11:31:08;100252.15;;;15.96;71.76
22572;BME280;11452;53.368;14.658;2023-03-22T11:36:16;100243.44;;;15.98;69.65
22572;BME280;11452;53.368;14.658;2023-03-22T11:41:25;100245.22;;;15.73;69.78
22572;BME280;11452;53.368;14.658;2023-03-22T11:46:33;100244.72;;;15.94;70.49
22572;BME280;11452;53.368;14.658;2023-03-22T11:51:40;100240.02;;;15.96;69.64
22572;BME280;11452;53.368;14.658;2023-03-22T11:56:47;100226.76;;;15.83;69.17
22572;BME280;11452;53.368;14.658;2023-03-22T12:02:16;100231.12;;;16.11;69.32
22572;BME280;11452;53.368;14.658;2023-03-22T12:07:21;100229.17;;;16.07;67.95
22572;BME280;11452;53.368;14.658;2023-03-22T12:12:34;100217.05;;;16.07;67.24
22572;BME280;11452;53.368;14.658;2023-03-22T12:23:16;100224.41;;;16.20;67.45
22572;BME280;11452;53.368;14.658;2023-03-22T12:28:26;100224.60;;;16.53;67.44
22572;BME280;11452;53.368;14.658;2023-03-22T12:43:59;100194.32;;;16.40;64.75
22572;BME280;11452;53.368;14.658;2023-03-22T12:54:45;100200.64;;;16.05;65.07
22572;BME280;11452;53.368;14.658;2023-03-22T12:59:55;100203.98;;;15.97;64.62
22572;BME280;11452;53.368;14.658;2023-03-22T13:05:04;100194.19;;;15.96;64.98
22572;BME280;11452;53.368;14.658;2023-03-22T13:21:18;100157.31;;;16.27;64.88
22572;BME280;11452;53.368;14.658;2023-03-22T13:26:48;100153.84;;;16.15;65.07
22572;BME280;11452;53.368;14.658;2023-03-22T13:31:57;100163.16;;;16.32;64.63
22572;BME280;11452;53.368;14.658;2023-03-22T13:37:22;100157.86;;;16.46;64.27
22572;BME280;11452;53.368;14.658;2023-03-22T13:42:37;100154.41;;;16.59;65.16
22572;BME280;11452;53.368;14.658;2023-03-22T13:47:45;100153.41;;;16.50;63.67
22572;BME280;11452;53.368;14.658;2023-03-22T13:53:02;100145.95;;;16.48;64.47
22572;BME280;11452;53.368;14.658;2023-03-22T13:58:34;100146.64;;;16.75;64.08
22572;BME280;11452;53.368;14.658;2023-03-22T14:03:27;100145.02;;;16.69;63.63
22572;BME280;11452;53.368;14.658;2023-03-22T14:08:30;100138.44;;;16.86;63.95
22572;BME280;11452;53.368;14.658;2023-03-22T14:13:42;100135.49;;;16.74;62.43
22572;BME280;11452;53.368;14.658;2023-03-22T14:18:49;100139.91;;;16.94;63.58
22572;BME280;11452;53.368;14.658;2023-03-22T14:23:57;100127.55;;;16.92;62.56
22572;BME280;11452;53.368;14.658;2023-03-22T14:29:14;100130.54;;;16.70;62.31
22572;BME280;11452;53.368;14.658;2023-03-22T14:34:19;100119.52;;;16.77;62.59
22572;BME280;11452;53.368;14.658;2023-03-22T14:39:38;100115.05;;;17.01;62.58
22572;BME280;11452;53.368;14.658;2023-03-22T14:44:46;100107.52;;;17.04;61.22
22572;BME280;11452;53.368;14.658;2023-03-22T14:49:53;100097.94;;;17.06;61.90
22572;BME280;11452;53.368;14.658;2023-03-22T14:55:00;100088.48;;;17.06;61.53
22572;BME280;11452;53.368;14.658;2023-03-22T15:00:10;100087.77;;;17.04;61.26
22572;BME280;11452;53.368;14.658;2023-03-22T15:05:20;100087.63;;;16.95;60.85
22572;BME280;11452;53.368;14.658;2023-03-22T15:10:27;100089.89;;;16.90;61.03
22572;BME280;11452;53.368;14.658;2023-03-22T15:15:38;100073.12;;;16.96;61.04
22572;BME280;11452;53.368;14.658;2023-03-22T15:20:46;100076.69;;;17.07;61.15
22572;BME280;11452;53.368;14.658;2023-03-22T15:25:51;100073.48;;;16.98;61.08
22572;BME280;11452;53.368;14.658;2023-03-22T15:31:01;100063.47;;;17.04;61.29
22572;BME280;11452;53.368;14.658;2023-03-22T15:36:06;100061.48;;;17.29;61.24
22572;BME280;11452;53.368;14.658;2023-03-22T15:41:33;100055.55;;;17.25;60.51
22572;BME280;11452;53.368;14.658;2023-03-22T15:51:50;100049.81;;;17.38;60.16
22572;BME280;11452;53.368;14.658;2023-03-22T15:56:55;100055.44;;;17.31;59.53
22572;BME280;11452;53.368;14.658;2023-03-22T16:02:12;100057.82;;;17.20;58.67
22572;BME280;11452;53.368;14.658;2023-03-22T16:07:06;100059.13;;;17.07;57.94
22572;BME280;11452;53.368;14.658;2023-03-22T16:12:15;100050.34;;;16.85;56.93
22572;BME280;11452;53.368;14.658;2023-03-22T16:17:22;100055.73;;;16.76;57.05
22572;BME280;11452;53.368;14.658;2023-03-22T16:22:27;100067.67;;;16.83;56.98
22572;BME280;11452;53.368;14.658;2023-03-22T16:27:32;100074.98;;;16.77;56.53
22572;BME280;11452;53.368;14.658;2023-03-22T16:32:37;100080.30;;;16.73;56.77
22572;BME280;11452;53.368;14.658;2023-03-22T16:37:41;100085.71;;;16.63;56.37
22572;BME280;11452;53.368;14.658;2023-03-22T16:42:46;100090.06;;;16.70;56.59
22572;BME280;11452;53.368;14.658;2023-03-22T16:47:51;100086.02;;;16.54;56.40
22572;BME280;11452;53.368;14.658;2023-03-22T16:52:56;100093.06;;;16.61;56.36
22572;BME280;11452;53.368;14.658;2023-03-22T16:58:01;100085.38;;;16.56;56.21
22572;BME280;11452;53.368;14.658;2023-03-22T17:03:08;100089.42;;;16.56;56.17
22572;BME280;11452;53.368;14.658;2023-03-22T17:08:18;100104.45;;;16.40;56.26
22572;BME280;11452;53.368;14.658;2023-03-22T17:13:23;100103.47;;;16.41;56.35
22572;BME280;11452;53.368;14.658;2023-03-22T17:18:28;100107.70;;;16.34;56.28
22572;BME280;11452;53.368;14.658;2023-03-22T17:23:32;100109.44;;;16.19;56.36
22572;BME280;11452;53.368;14.658;2023-03-22T17:28:37;100100.45;;;16.24;56.49
22572;BME280;11452;53.368;14.658;2023-03-22T17:33:42;100094.16;;;16.14;56.35
22572;BME280;11452;53.368;14.658;2023-03-22T17:38:48;100096.04;;;16.14;56.69
22572;BME280;11452;53.368;14.658;2023-03-22T17:43:52;100098.42;;;16.07;56.72
22572;BME280;11452;53.368;14.658;2023-03-22T17:48:58;100101.66;;;16.01;56.85
22572;BME280;11452;53.368;14.658;2023-03-22T17:54:03;100102.77;;;15.99;56.92
22572;BME280;11452;53.368;14.658;2023-03-22T17:59:07;100099.20;;;15.88;57.02
22572;BME280;11452;53.368;14.658;2023-03-22T18:04:12;100112.31;;;15.87;57.11
22572;BME280;11452;53.368;14.658;2023-03-22T18:09:16;100120.77;;;15.88;57.20
22572;BME280;11452;53.368;14.658;2023-03-22T18:14:21;100130.83;;;15.86;57.29
22572;BME280;11452;53.368;14.658;2023-03-22T18:19:26;100144.07;;;15.84;57.39
22572;BME280;11452;53.368;14.658;2023-03-22T18:24:30;100146.30;;;15.79;57.68
22572;BME280;11452;53.368;14.658;2023-03-22T18:29:35;100137.36;;;15.78;57.80
22572;BME280;11452;53.368;14.658;2023-03-22T18:34:40;100142.72;;;15.69;58.11
22572;BME280;11452;53.368;14.658;2023-03-22T18:39:45;100147.84;;;15.51;58.81
22572;BME280;11452;53.368;14.658;2023-03-22T18:44:50;100143.59;;;15.43;59.01
22572;BME280;11452;53.368;14.658;2023-03-22T18:49:54;100154.98;;;15.41;59.30
22572;BME280;11452;53.368;14.658;2023-03-22T18:54:59;100157.52;;;15.27;59.50
22572;BME280;11452;53.368;14.658;2023-03-22T19:00:06;100153.42;;;15.17;59.88
22572;BME280;11452;53.368;14.658;2023-03-22T19:05:11;100147.67;;;15.16;60.21
22572;BME280;11452;53.368;14.658;2023-03-22T19:10:15;100147.98;;;15.02;60.27
22572;BME280;11452;53.368;14.658;2023-03-22T19:15:20;100154.37;;;14.96;60.47
22572;BME280;11452;53.368;14.658;2023-03-22T19:20:24;100156.70;;;14.89;60.92
22572;BME280;11452;53.368;14.658;2023-03-22T19:25:29;100157.36;;;14.81;60.90
22572;BME280;11452;53.368;14.658;2023-03-22T19:30:33;100162.63;;;14.77;60.99
22572;BME280;11452;53.368;14.658;2023-03-22T19:35:43;100160.43;;;14.77;61.06
22572;BME280;11452;53.368;14.658;2023-03-22T19:40:45;100151.52;;;14.71;61.13
22572;BME280;11452;53.368;14.658;2023-03-22T19:45:51;100142.47;;;14.66;61.15
22572;BME280;11452;53.368;14.658;2023-03-22T19:50:59;100147.52;;;14.60;61.25
22572;BME280;11452;53.368;14.658;2023-03-22T19:56:05;100143.98;;;14.59;61.34
22572;BME280;11452;53.368;14.658;2023-03-22T20:01:12;100141.30;;;14.53;61.47
22572;BME280;11452;53.368;14.658;2023-03-22T20:06:16;100140.31;;;14.60;61.43
22572;BME280;11452;53.368;14.658;2023-03-22T20:11:21;100135.80;;;14.55;61.40
22572;BME280;11452;53.368;14.658;2023-03-22T20:16:26;100134.09;;;14.48;61.47
22572;BME280;11452;53.368;14.658;2023-03-22T20:21:31;100130.22;;;14.41;61.49
22572;BME280;11452;53.368;14.658;2023-03-22T20:26:36;100135.31;;;14.33;61.57
22572;BME280;11452;53.368;14.658;2023-03-22T20:31:41;100131.31;;;14.28;61.52
22572;BME280;11452;53.368;14.658;2023-03-22T20:36:46;100128.14;;;14.28;61.36
22572;BME280;11452;53.368;14.658;2023-03-22T20:41:51;100124.34;;;14.14;61.29
22572;BME280;11452;53.368;14.658;2023-03-22T20:46:55;100124.96;;;14.17;61.33
22572;BME280;11452;53.368;14.658;2023-03-22T20:51:59;100117.27;;;14.24;61.15
22572;BME280;11452;53.368;14.658;2023-03-22T20:57:04;100118.81;;;14.32;61.14
22572;BME280;11452;53.368;14.658;2023-03-22T21:02:11;100108.19;;;14.31;60.77
22572;BME280;11452;53.368;14.658;2023-03-22T21:07:16;100102.11;;;14.29;60.85
22572;BME280;11452;53.368;14.658;2023-03-22T21:12:21;100098.20;;;14.21;60.74
22572;BME280;11452;53.368;14.658;2023-03-22T21:17:27;100096.61;;;14.25;60.73
22572;BME280;11452;53.368;14.658;2023-03-22T21:22:31;100090.50;;;14.28;60.68
22572;BME280;11452;53.368;14.658;2023-03-22T21:27:36;100089.53;;;14.24;60.53
22572;BME280;11452;53.368;14.658;2023-03-22T21:32:43;100093.80;;;14.20;60.65
22572;BME280;11452;53.368;14.658;2023-03-22T21:37:48;100092.83;;;14.16;60.63
22572;BME280;11452;53.368;14.658;2023-03-22T21:42:53;100095.42;;;14.06;60.63
22572;BME280;11452;53.368;14.658;2023-03-22T21:48:00;100105.08;;;14.03;60.57
22572;BME280;11452;53.368;14.658;2023-03-22T21:53:05;100098.72;;;14.04;60.67
22572;BME280;11452;53.368;14.658;2023-03-22T21:58:10;100102.52;;;14.07;60.57
22572;BME280;11452;53.368;14.658;2023-03-22T22:03:15;100101.29;;;14.00;60.54
22572;BME280;11452;53.368;14.658;2023-03-22T22:08:21;100099.94;;;14.00;60.69
22572;BME280;11452;53.368;14.658;2023-03-22T22:13:26;100099.95;;;14.06;60.63
22572;BME280;11452;53.368;14.658;2023-03-22T22:18:32;100094.81;;;14.08;60.48
22572;BME280;11452;53.368;14.658;2023-03-22T22:23:43;100095.52;;;14.10;60.65
22572;BME280;11452;53.368;14.658;2023-03-22T22:28:51;100082.97;;;14.00;60.56
22572;BME280;11452;53.368;14.658;2023-03-22T22:33:58;100075.64;;;13.96;60.61
22572;BME280;11452;53.368;14.658;2023-03-22T22:39:03;100074.05;;;13.99;60.84
22572;BME280;11452;53.368;14.658;2023-03-22T22:44:10;100058.17;;;13.96;60.74
22572;BME280;11452;53.368;14.658;2023-03-22T22:49:17;100047.55;;;14.00;60.96
22572;BME280;11452;53.368;14.658;2023-03-22T22:54:23;100037.53;;;14.02;60.91
22572;BME280;11452;53.368;14.658;2023-03-22T22:59:28;100049.63;;;13.97;60.83
22572;BME280;11452;53.368;14.658;2023-03-22T23:04:32;100046.61;;;13.90;61.02
22572;BME280;11452;53.368;14.658;2023-03-22T23:09:38;100037.41;;;13.93;61.15
22572;BME280;11452;53.368;14.658;2023-03-22T23:14:44;100045.88;;;13.88;61.18
22572;BME280;11452;53.368;14.658;2023-03-22T23:19:50;100040.50;;;13.88;61.20
22572;BME280;11452;53.368;14.658;2023-03-22T23:24:58;100036.95;;;13.82;61.40
22572;BME280;11452;53.368;14.658;2023-03-22T23:30:05;100030.73;;;13.81;61.57
22572;BME280;11452;53.368;14.658;2023-03-22T23:35:10;100032.68;;;13.79;61.48
22572;BME280;11452;53.368;14.658;2023-03-22T23:40:15;100027.80;;;13.79;61.57
22572;BME280;11452;53.368;14.658;2023-03-22T23:45:20;100028.16;;;13.80;61.62
22572;BME280;11452;53.368;14.658;2023-03-22T23:50:25;100019.38;;;13.83;61.91
22572;BME280;11452;53.368;14.658;2023-03-22T23:55:30;100026.58;;;13.83;61.70
